Time;durP1;ratioP1;P1;durP2;ratioP2;P2;SDS_P1;SDS_P2;PMS_P1;PMS_P2;Temp;Humidity;BMP_temperature;BMP_pressure;BME280_temperature;BME280_humidity;BME280_pressure;Samples;Min_cycle;Max_cycle;Signal;HPM_P1;HPM_P2
2021/08/07 00:00:40;;;;;;;15.10;7.62;;;;;;;18.87;100.00;97984.62;1870566;76;22579;-54
2021/08/07 00:03:15;;;;;;;13.03;7.72;;;;;;;18.85;100.00;97988.62;1870855;76;22112;-56
2021/08/07 00:05:50;;;;;;;12.25;7.85;;;;;;;18.84;100.00;97996.05;1870624;76;22117;-56
2021/08/07 00:08:44;;;;;;;14.45;8.18;;;;;;;18.81;100.00;98002.70;1870559;76;22145;-57
2021/08/07 00:11:20;;;;;;;12.05;8.00;;;;;;;18.78;100.00;98008.05;1854596;76;27922;-57
2021/08/07 00:14:16;;;;;;;12.40;7.80;;;;;;;18.84;100.00;98011.73;1854523;76;27925;-57
2021/08/07 00:17:10;;;;;;;10.43;7.40;;;;;;;18.93;100.00;98010.98;1858563;76;22231;-55
2021/08/07 00:19:47;;;;;;;12.03;7.60;;;;;;;18.89;100.00;98018.55;1875508;76;22204;-59
2021/08/07 00:22:21;;;;;;;11.80;7.83;;;;;;;18.84;100.00;98024.80;1889899;76;22114;-55
2021/08/07 00:25:16;;;;;;;13.68;7.60;;;;;;;18.79;100.00;98031.96;1870502;76;22576;-58
2021/08/07 00:27:51;;;;;;;19.12;7.65;;;;;;;18.74;100.00;98043.01;1870869;76;22101;-54
2021/08/07 00:30:27;;;;;;;14.53;7.97;;;;;;;18.73;100.00;98047.85;1889916;76;20351;-57
2021/08/07 00:33:02;;;;;;;13.40;7.65;;;;;;;18.71;100.00;98051.43;1870680;76;22125;-56
2021/08/07 00:35:56;;;;;;;11.53;8.00;;;;;;;18.68;100.00;98052.86;1870602;76;22199;-55
2021/08/07 00:38:31;;;;;;;10.93;7.30;;;;;;;18.66;100.00;98052.90;1870732;76;22109;-54
2021/08/07 00:41:26;;;;;;;10.70;7.30;;;;;;;18.62;100.00;98052.59;1863984;76;22169;-53
2021/08/07 00:44:02;;;;;;;14.58;8.33;;;;;;;18.60;100.00;98057.05;1870458;76;22611;-58
2021/08/07 00:46:58;;;;;;;11.93;7.70;;;;;;;18.57;100.00;98058.02;1854481;76;27949;-52
2021/08/07 00:49:33;;;;;;;8.83;6.70;;;;;;;18.63;100.00;98054.33;1870598;76;22171;-51
2021/08/07 00:52:10;;;;;;;9.93;7.17;;;;;;;18.63;100.00;98054.33;1846645;76;27957;-52
2021/08/07 00:54:46;;;;;;;11.05;6.95;;;;;;;18.66;100.00;98058.97;1870458;76;22573;-55
2021/08/07 00:57:41;;;;;;;9.98;7.53;;;;;;;18.65;100.00;98066.89;1870580;76;22185;-55
2021/08/07 01:00:37;;;;;;;12.43;7.97;;;;;;;18.60;100.00;98057.05;1889993;76;22237;-53
2021/08/07 01:03:44;;;;;;;12.10;6.90;;;;;;;18.52;100.00;98062.55;1889919;76;22186;-54
2021/08/07 01:06:51;;;;;;;8.10;6.25;;;;;;;18.46;100.00;98053.61;1889989;76;22143;-54
2021/08/07 01:09:57;;;;;;;8.68;5.97;;;;;;;18.40;100.00;98044.23;1870664;76;22105;-57
2021/08/07 01:12:41;;;;;;;8.20;5.65;;;;;;;18.36;100.00;98053.08;1867377;76;22582;-54
2021/08/07 01:15:43;;;;;;;7.72;6.00;;;;;;;18.30;100.00;98059.83;1870363;76;22156;-52
2021/08/07 01:18:27;;;;;;;9.70;6.20;;;;;;;18.28;100.00;98058.18;1889940;76;22183;-56
2021/08/07 01:21:27;;;;;;;8.80;6.70;;;;;;;18.25;100.00;98064.83;1870585;76;22172;-55
2021/08/07 01:24:27;;;;;;;13.03;6.90;;;;;;;18.23;100.00;98064.86;1870727;76;22220;-54
2021/08/07 01:27:27;;;;;;;11.55;6.22;;;;;;;18.23;100.00;98072.23;1870658;76;22188;-55
2021/08/07 01:30:19;;;;;;;9.68;5.65;;;;;;;18.22;100.00;98081.45;1870626;76;22133;-57
2021/08/07 01:33:21;;;;;;;8.10;5.75;;;;;;;18.22;100.00;98086.22;1869725;76;22579;-52
2021/08/07 01:36:17;;;;;;;7.70;5.92;;;;;;;18.23;100.00;98084.45;1852455;76;22626;-56
2021/08/07 01:39:12;;;;;;;10.90;6.55;;;;;;;18.25;100.00;98080.49;1868997;76;22202;-56
2021/08/07 01:42:07;;;;;;;10.75;6.22;;;;;;;18.26;100.00;98084.34;1854678;76;27933;-53
2021/08/07 01:44:43;;;;;;;8.85;5.62;;;;;;;18.30;100.00;98077.27;1870564;76;22156;-52
2021/08/07 01:47:30;;;;;;;10.55;6.25;;;;;;;18.30;100.00;98076.81;1870401;76;22152;-53
2021/08/07 01:50:20;;;;;;;12.25;5.58;;;;;;;18.28;100.00;98078.61;1870457;76;22587;-52
2021/08/07 01:53:20;;;;;;;10.28;6.62;;;;;;;18.27;99.88;98087.37;1889903;76;22120;-51
2021/08/07 01:56:24;;;;;;;8.65;5.65;;;;;;;18.22;99.56;98079.69;1851292;76;22202;-57
2021/08/07 01:59:09;;;;;;;7.80;4.37;;;;;;;18.15;99.15;98090.39;1861404;76;22198;-55
2021/08/07 02:01:48;;;;;;;8.25;5.00;;;;;;;18.09;98.56;98094.50;1870791;76;22157;-52
2021/08/07 02:04:24;;;;;;;8.85;4.80;;;;;;;18.04;97.69;98088.58;1886537;76;22616;-52
2021/08/07 02:06:59;;;;;;;7.70;4.37;;;;;;;17.97;97.21;98103.61;1860375;76;28168;-53
2021/08/07 02:09:44;;;;;;;6.97;3.98;;;;;;;17.97;96.46;98101.84;1855288;76;22188;-54
2021/08/07 02:12:20;;;;;;;9.53;4.28;;;;;;;17.90;95.58;98104.24;1856547;76;22172;-53
2021/08/07 02:14:57;;;;;;;6.95;4.28;;;;;;;17.87;95.07;98110.87;1865415;76;20119;-55
2021/08/07 02:17:33;;;;;;;9.90;4.30;;;;;;;17.83;94.57;98115.78;1870309;76;22142;-55
2021/08/07 02:20:11;;;;;;;6.67;3.95;;;;;;;17.79;94.53;98123.30;1866773;76;22254;-54
2021/08/07 02:23:07;;;;;;;8.48;4.65;;;;;;;17.76;94.72;98122.94;1870627;76;22527;-53
2021/08/07 02:25:45;;;;;;;8.33;4.70;;;;;;;17.76;94.76;98129.92;1876506;76;22596;-55
2021/08/07 02:28:22;;;;;;;10.98;5.25;;;;;;;17.75;94.80;98133.41;1857100;76;22590;-55
2021/08/07 02:31:19;;;;;;;8.53;4.35;;;;;;;17.73;94.82;98124.77;1888855;76;22219;-55
2021/08/07 02:33:56;;;;;;;9.23;4.67;;;;;;;17.66;94.94;98124.59;1869536;76;22555;-57
2021/08/07 02:36:32;;;;;;;8.53;4.65;;;;;;;17.60;95.10;98132.58;1870481;76;22144;-55
2021/08/07 02:39:08;;;;;;;7.60;4.55;;;;;;;17.56;95.40;98138.36;1873894;76;27916;-54
2021/08/07 02:42:09;;;;;;;8.88;4.95;;;;;;;17.62;95.63;98137.31;1889856;76;22151;-56
2021/08/07 02:44:48;;;;;;;10.45;5.58;;;;;;;17.61;95.71;98144.29;1870610;76;20097;-52
2021/08/07 02:47:28;;;;;;;7.87;5.17;;;;;;;17.63;95.87;98145.53;1870692;76;22167;-51
2021/08/07 02:50:07;;;;;;;9.25;5.00;;;;;;;17.62;95.97;98145.14;1870540;76;22132;-55
2021/08/07 02:53:12;;;;;;;10.43;4.80;;;;;;;17.62;96.09;98150.36;1869762;76;22567;-54
2021/08/07 02:55:50;;;;;;;13.45;5.20;;;;;;;17.61;96.16;98151.27;1870528;76;22136;-55
2021/08/07 02:58:28;;;;;;;8.40;5.00;;;;;;;17.61;96.19;98155.19;1870640;76;22568;-52
2021/08/07 03:01:05;;;;;;;7.12;4.65;;;;;;;17.48;96.31;98162.07;1889926;76;22212;-54
2021/08/07 03:04:04;;;;;;;6.55;5.00;;;;;;;17.51;96.37;98155.45;1870449;76;22153;-53
2021/08/07 03:06:43;;;;;;;11.08;4.90;;;;;;;17.51;96.48;98161.12;1870573;76;22160;-55
2021/08/07 03:09:19;;;;;;;8.18;4.80;;;;;;;17.47;96.63;98161.64;1870573;76;22176;-56
2021/08/07 03:12:16;;;;;;;7.35;4.33;;;;;;;17.54;96.46;98169.70;1870582;76;22743;-54
2021/08/07 03:14:54;;;;;;;10.32;4.80;;;;;;;17.54;96.30;98173.61;1870528;76;22154;-53
2021/08/07 03:17:31;;;;;;;8.88;4.70;;;;;;;17.55;96.10;98176.64;1870558;76;22121;-56
2021/08/07 03:20:16;;;;;;;7.45;5.17;;;;;;;17.57;95.87;98178.73;1869699;76;22576;-55
2021/08/07 03:23:14;;;;;;;7.42;4.97;;;;;;;17.62;95.75;98185.58;1870616;76;22188;-55
2021/08/07 03:25:51;;;;;;;6.50;4.47;;;;;;;17.64;95.61;98191.61;1870467;76;22554;-54
2021/08/07 03:28:30;;;;;;;8.45;4.85;;;;;;;17.67;95.50;98188.91;1870494;76;22542;-55
2021/08/07 03:31:28;;;;;;;6.87;5.03;;;;;;;17.70;95.26;98184.89;1870558;76;22583;-53
2021/08/07 03:34:26;;;;;;;12.90;5.55;;;;;;;17.70;95.11;98186.20;1889916;76;22224;-55
2021/08/07 03:37:24;;;;;;;5.85;4.22;;;;;;;17.70;94.88;98190.11;1870551;76;22558;-51
2021/08/07 03:40:00;;;;;;;10.05;4.78;;;;;;;17.68;94.53;98197.13;1870630;76;22105;-61
2021/08/07 03:42:37;;;;;;;6.22;4.53;;;;;;;17.71;94.43;98207.50;1870610;76;22109;-56
2021/08/07 03:45:13;;;;;;;8.98;4.90;;;;;;;17.77;94.24;98204.69;1854713;76;22607;-61
2021/08/07 10:24:39;;;;;;;2.22;1.20;;;;;;;24.42;48.75;98378.74;1830433;77;22240;-56
2021/08/07 10:27:18;;;;;;;2.20;1.10;;;;;;;24.47;48.54;98378.94;1870458;76;22128;-57
2021/08/07 10:30:14;;;;;;;2.35;1.15;;;;;;;24.62;48.31;98376.36;1889825;76;22209;-62
2021/08/07 10:32:56;;;;;;;2.40;1.25;;;;;;;24.84;47.12;98397.12;1870386;76;22164;-61
2021/08/07 10:35:31;;;;;;;3.77;1.57;;;;;;;25.03;46.78;98406.16;1889926;76;22139;-66
2021/08/07 10:38:26;;;;;;;2.98;1.30;;;;;;;25.23;46.52;98398.45;1889905;76;22143;-57
2021/08/07 10:41:01;;;;;;;2.73;1.20;;;;;;;25.40;45.65;98397.48;1873998;76;28452;-60
2021/08/07 10:43:38;;;;;;;3.90;1.50;;;;;;;25.56;45.28;98397.78;1889916;76;22554;-55
2021/08/07 10:46:34;;;;;;;3.45;1.22;;;;;;;25.67;45.14;98410.39;1870337;76;22621;-54
2021/08/07 10:49:17;;;;;;;4.37;1.25;;;;;;;25.75;45.25;98413.41;1869757;76;22109;-57
2021/08/07 10:52:24;;;;;;;2.67;1.47;;;;;;;25.95;44.99;98411.38;1870405;76;22176;-57
2021/08/07 10:55:43;;;;;;;2.58;1.20;;;;;;;26.05;44.35;98411.67;1870640;76;22101;-58
2021/08/07 10:58:46;;;;;;;2.42;1.22;;;;;;;26.02;43.97;98414.03;1889885;76;22230;-66
2021/08/07 11:01:33;;;;;;;2.40;1.17;;;;;;;25.96;44.25;98413.09;1890101;76;22128;-63
2021/08/07 11:04:33;;;;;;;3.25;1.20;;;;;;;26.12;44.18;98403.27;1854503;76;28380;-70
2021/08/07 11:07:28;;;;;;;2.22;1.10;;;;;;;26.30;43.52;98402.59;1889864;76;22168;-57
2021/08/07 11:10:27;;;;;;;2.02;1.07;;;;;;;26.37;43.45;98412.34;1889831;76;22144;-59
2021/08/07 11:13:25;;;;;;;3.65;1.17;;;;;;;26.44;43.32;98415.45;1889895;76;22116;-62
2021/08/07 11:16:20;;;;;;;3.72;1.12;;;;;;;26.37;43.32;98418.47;1889907;76;22159;-64
2021/08/07 11:20:00;;;;;;;2.87;1.10;;;;;;;26.21;43.32;98421.70;1870667;76;22105;-62
2021/08/07 11:22:41;;;;;;;2.83;1.00;;;;;;;26.14;43.94;98417.73;1870699;76;22524;-59
2021/08/07 11:25:50;;;;;;;2.45;1.22;;;;;;;26.19;44.06;98425.75;1871039;76;22551;-51
2021/08/07 11:28:26;;;;;;;2.25;0.90;;;;;;;26.10;43.81;98426.78;1871007;76;22555;-60
2021/08/07 11:31:22;;;;;;;2.70;0.90;;;;;;;26.27;43.70;98423.11;1870403;76;22608;-63
2021/08/07 11:34:23;;;;;;;1.77;1.00;;;;;;;26.43;43.06;98425.17;1874072;76;27847;-52
2021/08/07 11:37:20;;;;;;;1.60;0.80;;;;;;;26.76;41.86;98423.53;1870742;76;22101;-52
2021/08/07 11:40:13;;;;;;;3.37;0.90;;;;;;;26.92;41.49;98410.19;1870764;76;22109;-51
2021/08/07 11:42:50;;;;;;;3.35;0.90;;;;;;;27.07;41.10;98414.93;1890045;76;20097;-63
2021/08/07 11:45:59;;;;;;;2.02;1.05;;;;;;;27.08;41.63;98414.00;1873889;76;27863;-64
2021/08/07 11:48:38;;;;;;;1.77;0.75;;;;;;;27.00;41.28;98413.66;1870710;76;22141;-62
2021/08/07 11:51:22;;;;;;;2.52;0.80;;;;;;;27.03;41.05;98416.95;1890001;76;22574;-63
2021/08/07 11:54:15;;;;;;;2.37;0.95;;;;;;;27.26;40.84;98401.37;1870815;76;22105;-58
2021/08/07 11:57:26;;;;;;;3.30;1.13;;;;;;;27.11;41.47;98410.30;1854861;76;28229;-59
2021/08/07 12:00:23;;;;;;;3.77;1.12;;;;;;;26.63;42.40;98416.01;1870758;76;22197;-63
2021/08/07 12:03:16;;;;;;;3.12;1.27;;;;;;;26.18;43.49;98410.84;1870704;76;22157;-53
2021/08/07 12:06:11;;;;;;;2.90;1.15;;;;;;;25.98;44.27;98405.92;1889948;76;22147;-59
2021/08/07 12:09:16;;;;;;;3.45;1.35;;;;;;;25.91;44.63;98408.08;1889968;76;22561;-63
2021/08/07 12:11:52;;;;;;;2.12;1.02;;;;;;;26.04;44.33;98404.69;1890024;76;22132;-62
2021/08/07 12:14:53;;;;;;;1.72;1.07;;;;;;;25.98;44.25;98417.34;1890111;76;22642;-65
2021/08/07 12:17:28;;;;;;;3.47;1.35;;;;;;;25.97;44.16;98422.71;1870688;76;22571;-57
2021/08/07 12:20:04;;;;;;;3.33;1.25;;;;;;;25.94;44.27;98430.84;1870702;76;22567;-70
2021/08/07 12:23:03;;;;;;;2.80;1.07;;;;;;;25.96;44.34;98431.60;1889985;76;22119;-64
2021/08/07 12:25:38;;;;;;;3.72;0.90;;;;;;;26.19;43.87;98435.01;1870872;76;22120;-67
2021/08/07 12:28:20;;;;;;;2.30;1.20;;;;;;;26.33;44.15;98431.98;1890087;76;22184;-65
2021/08/07 12:31:02;;;;;;;1.75;1.00;;;;;;;26.40;43.58;98435.95;1870447;76;22157;-65
2021/08/07 12:33:43;;;;;;;2.42;1.30;;;;;;;26.15;44.02;98437.45;1870479;76;22186;-59
2021/08/07 12:36:37;;;;;;;2.52;1.37;;;;;;;25.84;45.09;98441.55;1889900;76;22148;-61
2021/08/07 12:39:13;;;;;;;4.15;1.35;;;;;;;25.49;45.62;98436.55;1854746;76;27884;-57
2021/08/07 12:41:48;;;;;;;2.30;1.40;;;;;;;25.45;46.00;98436.37;1870720;76;22153;-65
2021/08/07 12:44:27;;;;;;;2.70;1.30;;;;;;;25.39;45.96;98439.34;1874005;76;27850;-58
2021/08/07 12:47:28;;;;;;;2.67;1.20;;;;;;;25.21;46.75;98430.70;1870626;76;22149;-57
2021/08/07 12:50:19;;;;;;;2.02;1.17;;;;;;;24.91;47.06;98445.53;1870486;76;22246;-62
2021/08/07 12:53:13;;;;;;;3.85;1.20;;;;;;;24.73;48.03;98447.00;1889988;76;22526;-60
2021/08/07 12:56:07;;;;;;;3.27;1.10;;;;;;;24.63;48.39;98454.59;1890043;76;22104;-66
2021/08/07 12:59:07;;;;;;;2.70;1.10;;;;;;;24.61;48.94;98452.50;1891502;76;22111;-71
2021/08/07 13:02:04;;;;;;;2.87;1.10;;;;;;;24.56;48.50;98462.45;1870699;76;22132;-60
2021/08/07 13:04:59;;;;;;;2.35;1.30;;;;;;;24.51;49.14;98476.36;1889936;76;22558;-54
2021/08/07 13:07:53;;;;;;;1.98;1.02;;;;;;;24.54;49.01;98473.08;1870638;76;22168;-58
2021/08/07 13:10:46;;;;;;;4.62;1.30;;;;;;;24.41;49.30;98478.59;1870635;76;22161;-61
2021/08/07 13:13:47;;;;;;;3.25;1.32;;;;;;;24.24;49.74;98488.23;1889952;76;22116;-64
2021/08/07 13:16:46;;;;;;;3.80;1.30;;;;;;;24.13;49.62;98472.14;1870693;76;22113;-59
2021/08/07 13:19:27;;;;;;;2.33;1.05;;;;;;;23.98;49.54;98483.01;1870566;76;22153;-59
2021/08/07 13:22:21;;;;;;;2.37;1.30;;;;;;;23.93;49.14;98493.41;1870644;76;22203;-62
2021/08/07 13:25:17;;;;;;;3.17;1.30;;;;;;;23.94;49.77;98495.98;1870615;76;22112;-53
2021/08/07 13:27:53;;;;;;;4.12;1.42;;;;;;;24.10;49.53;98501.78;1889986;76;22547;-58
2021/08/07 13:30:28;;;;;;;3.15;1.37;;;;;;;24.21;49.63;98491.52;1854842;76;27902;-65
2021/08/07 13:33:31;;;;;;;4.33;1.20;;;;;;;24.16;49.68;98494.38;1870630;76;22160;-67
2021/08/07 13:36:06;;;;;;;2.58;1.32;;;;;;;24.07;49.99;98504.11;1870588;76;22160;-61
2021/08/07 13:39:00;;;;;;;2.42;1.20;;;;;;;24.12;48.89;98506.05;1870695;76;22117;-64
2021/08/07 13:41:43;;;;;;;2.12;1.27;;;;;;;24.04;48.92;98505.56;1870668;76;22148;-67
2021/08/07 13:44:20;;;;;;;2.35;1.22;;;;;;;24.11;49.49;98520.14;1870461;76;22158;-58
2021/08/07 13:47:03;;;;;;;4.30;1.62;;;;;;;24.20;49.09;98523.63;1869864;76;22140;-61
2021/08/07 13:49:38;;;;;;;3.05;1.87;;;;;;;24.25;48.37;98528.67;1870597;76;22167;-62
2021/08/07 13:52:14;;;;;;;6.50;1.55;;;;;;;24.18;48.33;98534.72;1889992;76;22103;-64
2021/08/07 13:54:50;;;;;;;2.40;1.30;;;;;;;24.09;48.38;98539.13;1870468;76;22589;-61
2021/08/07 13:57:44;;;;;;;5.35;1.50;;;;;;;23.95;48.26;98542.95;1870631;76;22547;-57
2021/08/07 14:00:19;;;;;;;5.65;1.17;;;;;;;23.69;48.83;98552.13;1889943;76;22116;-66
2021/08/07 14:03:00;;;;;;;4.33;1.47;;;;;;;23.42;49.42;98543.77;1889960;76;22104;-64
2021/08/07 14:05:34;;;;;;;2.95;1.30;;;;;;;23.32;49.59;98547.30;1870728;76;22176;-69
2021/08/07 14:08:09;;;;;;;3.05;1.40;;;;;;;23.29;49.48;98544.82;1870673;76;22616;-61
2021/08/07 14:10:46;;;;;;;4.95;1.87;;;;;;;23.28;49.51;98547.05;1870459;76;22136;-59
2021/08/07 14:13:21;;;;;;;4.15;1.30;;;;;;;23.22;50.06;98549.98;1889979;76;22129;-61
2021/08/07 14:15:55;;;;;;;2.65;1.35;;;;;;;23.18;50.18;98554.08;1870718;76;22136;-58
2021/08/07 14:18:49;;;;;;;3.80;1.20;;;;;;;23.13;49.82;98558.71;1870662;76;22125;-58
2021/08/07 14:21:24;;;;;;;2.20;1.00;;;;;;;23.11;49.87;98563.19;1870666;76;22132;-57
2021/08/07 14:23:59;;;;;;;2.70;1.20;;;;;;;23.08;49.82;98559.39;1870693;76;22156;-60
2021/08/07 14:26:35;;;;;;;3.75;1.40;;;;;;;23.00;49.65;98557.58;1870717;76;22540;-58
2021/08/07 14:29:13;;;;;;;5.67;1.27;;;;;;;22.90;49.65;98568.11;1871071;76;22108;-50
2021/08/07 14:31:50;;;;;;;3.27;1.55;;;;;;;22.86;49.75;98565.21;1871471;76;22615;-58
2021/08/07 14:34:26;;;;;;;3.25;1.50;;;;;;;22.90;49.91;98576.00;1889952;76;22146;-61
2021/08/07 14:37:02;;;;;;;2.87;1.45;;;;;;;22.94;49.93;98573.59;1854644;76;28309;-58
2021/08/07 14:39:37;;;;;;;3.20;1.37;;;;;;;22.99;50.28;98579.54;1870475;76;22148;-59
2021/08/07 14:42:14;;;;;;;3.35;1.40;;;;;;;22.92;50.28;98580.70;1873835;76;28062;-64
2021/08/07 14:45:09;;;;;;;3.45;1.52;;;;;;;22.84;50.09;98590.73;1889898;76;22140;-63
2021/08/07 14:48:04;;;;;;;3.70;1.50;;;;;;;22.78;50.65;98584.44;1878675;76;22567;-64
2021/08/07 14:50:47;;;;;;;2.60;1.25;;;;;;;22.81;50.33;98580.34;1848222;76;22171;-58
2021/08/07 14:53:23;;;;;;;4.15;1.45;;;;;;;22.82;50.49;98583.36;1851388;76;22582;-61
2021/08/07 14:55:58;;;;;;;2.92;1.40;;;;;;;22.78;50.54;98580.03;1851521;76;22188;-61
2021/08/07 14:58:52;;;;;;;2.47;1.30;;;;;;;22.70;50.70;98580.37;1858027;76;22163;-65
2021/08/07 15:01:28;;;;;;;4.70;1.42;;;;;;;22.62;50.96;98582.93;1854250;76;22603;-66
2021/08/07 15:04:04;;;;;;;3.37;1.40;;;;;;;22.40;51.85;98568.57;1851806;76;22270;-56
2021/08/07 15:06:39;;;;;;;3.37;1.50;;;;;;;22.20;52.56;98574.22;1866574;76;22278;-57
2021/08/07 15:09:15;;;;;;;2.83;1.50;;;;;;;22.06;53.21;98565.59;1837008;76;28191;-67
2021/08/07 15:11:50;;;;;;;3.02;1.70;;;;;;;22.01;53.31;98577.22;1852571;76;22251;-64
2021/08/07 15:14:26;;;;;;;2.58;1.25;;;;;;;21.84;53.77;98569.55;1852047;76;22180;-54
2021/08/07 15:17:07;;;;;;;3.25;1.55;;;;;;;21.76;54.02;98572.11;1865488;76;22168;-57
2021/08/07 15:20:03;;;;;;;3.02;1.60;;;;;;;21.59;54.46;98584.13;1855642;76;22183;-65
2021/08/07 15:22:57;;;;;;;4.03;1.82;;;;;;;21.47;54.91;98578.05;1861590;76;22194;-62
2021/08/07 15:25:32;;;;;;;2.52;1.55;;;;;;;21.44;55.34;98574.24;1853070;76;22641;-61
2021/08/07 15:28:09;;;;;;;3.12;1.60;;;;;;;21.40;55.34;98583.17;1859250;76;22272;-59
2021/08/07 15:31:04;;;;;;;3.98;1.75;;;;;;;21.38;55.48;98591.09;1873865;76;27902;-53
2021/08/07 15:33:40;;;;;;;4.00;1.90;;;;;;;21.48;55.63;98594.22;1866365;76;22189;-61
2021/08/07 15:36:16;;;;;;;4.70;1.62;;;;;;;21.57;55.64;98593.84;1866616;76;23246;-61
2021/08/07 15:39:11;;;;;;;3.60;1.70;;;;;;;21.68;55.83;98590.34;1870364;76;22175;-59
2021/08/07 15:41:46;;;;;;;3.98;1.57;;;;;;;21.73;55.46;98590.16;1870700;76;22136;-60
2021/08/07 15:44:21;;;;;;;4.92;1.87;;;;;;;21.83;55.29;98603.32;1870518;76;22555;-63
2021/08/07 15:47:04;;;;;;;3.27;1.55;;;;;;;21.91;55.03;98608.27;1860437;76;22189;-58
2021/08/07 15:49:57;;;;;;;3.17;1.65;;;;;;;21.95;55.14;98605.04;1868031;76;22191;-56
2021/08/07 15:52:33;;;;;;;3.50;1.47;;;;;;;21.96;55.02;98613.34;1870421;76;22582;-58
2021/08/07 15:55:08;;;;;;;3.75;1.85;;;;;;;21.93;55.19;98614.31;1870647;76;22570;-65
2021/08/07 15:57:43;;;;;;;3.37;1.60;;;;;;;21.92;55.27;98611.73;1870629;76;22137;-66
2021/08/07 16:00:37;;;;;;;3.95;1.67;;;;;;;21.92;55.33;98619.63;1870673;76;22145;-58
2021/08/07 16:03:12;;;;;;;3.95;1.77;;;;;;;21.85;55.44;98617.26;1855750;76;28027;-54
2021/08/07 16:06:06;;;;;;;3.83;2.00;;;;;;;21.86;55.81;98621.58;1870635;76;22120;-64
2021/08/07 16:08:41;;;;;;;2.85;1.40;;;;;;;21.80;55.99;98615.70;1870633;76;22133;-60
2021/08/07 16:11:43;;;;;;;4.58;1.60;;;;;;;21.78;56.18;98623.67;1870746;76;22113;-59
2021/08/07 16:14:19;;;;;;;3.10;1.57;;;;;;;21.72;55.78;98616.02;1870510;76;22149;-62
2021/08/07 16:16:55;;;;;;;4.58;1.55;;;;;;;21.68;56.02;98624.95;1889968;76;20093;-59
2021/08/07 16:19:49;;;;;;;3.50;1.40;;;;;;;21.68;56.17;98614.45;1870611;76;22173;-66
2021/08/07 16:22:30;;;;;;;4.37;1.72;;;;;;;21.77;56.49;98617.15;1869819;76;22141;-59
2021/08/07 16:25:12;;;;;;;2.87;1.55;;;;;;;21.78;56.34;98618.41;1869755;76;22169;-58
2021/08/07 16:28:06;;;;;;;3.90;1.47;;;;;;;21.73;56.24;98620.80;1889976;76;22116;-67
2021/08/07 16:30:41;;;;;;;3.42;1.57;;;;;;;21.59;56.26;98614.80;1873963;76;38623;-67
2021/08/07 16:33:17;;;;;;;3.02;1.22;;;;;;;21.48;56.74;98610.44;1870556;76;22157;-59
2021/08/07 16:35:56;;;;;;;4.10;1.70;;;;;;;21.38;56.65;98617.34;1870731;76;22118;-69
2021/08/07 16:38:30;;;;;;;3.15;1.30;;;;;;;21.25;56.92;98615.62;1865752;76;22220;-61
2021/08/07 16:41:07;;;;;;;3.15;1.60;;;;;;;21.11;57.21;98615.73;1873859;76;27922;-52
2021/08/07 16:43:42;;;;;;;3.15;1.35;;;;;;;21.03;57.41;98611.63;1811633;77;27989;-68
2021/08/07 16:46:38;;;;;;;3.17;1.32;;;;;;;21.12;57.47;98610.91;1870583;76;22539;-60
2021/08/07 16:49:16;;;;;;;5.05;1.70;;;;;;;21.10;57.47;98610.95;1870694;76;22101;-65
2021/08/07 16:52:10;;;;;;;2.30;1.25;;;;;;;20.94;57.94;98614.61;1889901;76;22566;-66
2021/08/07 16:54:45;;;;;;;4.17;1.77;;;;;;;20.81;58.30;98613.31;1854903;76;27843;-65
2021/08/07 16:57:39;;;;;;;2.98;1.40;;;;;;;20.74;58.78;98606.61;1870624;76;22145;-72
2021/08/07 17:00:14;;;;;;;4.20;1.65;;;;;;;20.62;59.10;98609.66;1870669;76;22105;-56
2021/08/07 17:03:07;;;;;;;2.52;1.45;;;;;;;20.48;59.72;98607.48;1870603;76;22635;-59
2021/08/07 17:05:43;;;;;;;5.53;1.82;;;;;;;20.39;60.10;98619.15;1889943;76;22104;-67
2021/08/07 17:08:37;;;;;;;7.65;1.60;;;;;;;20.32;60.61;98611.09;1870576;76;22120;-65
2021/08/07 17:11:17;;;;;;;2.08;1.20;;;;;;;20.26;60.86;98615.24;1870670;76;22133;-63
2021/08/07 17:14:11;;;;;;;4.28;1.70;;;;;;;20.14;61.38;98612.11;1870662;76;22144;-67
2021/08/07 17:17:11;;;;;;;3.95;1.85;;;;;;;20.04;61.93;98619.88;1889891;76;22165;-66
2021/08/07 17:19:45;;;;;;;5.28;1.87;;;;;;;20.01;62.29;98620.44;1870655;76;22116;-59
2021/08/07 17:22:40;;;;;;;3.67;1.77;;;;;;;20.03;62.43;98613.39;1870634;76;22121;-63
2021/08/07 17:25:15;;;;;;;3.25;1.70;;;;;;;19.99;62.58;98621.78;1870673;76;22113;-58
2021/08/07 17:28:09;;;;;;;3.02;1.70;;;;;;;19.92;63.05;98621.58;1870690;76;22113;-69
2021/08/07 17:30:50;;;;;;;4.03;1.60;;;;;;;19.83;63.38;98615.34;1889950;76;22176;-63
2021/08/07 17:33:25;;;;;;;3.77;1.90;;;;;;;19.79;63.64;98617.65;1870686;76;22559;-54
2021/08/07 17:36:00;;;;;;;4.75;2.12;;;;;;;19.75;64.04;98620.83;1871720;76;22124;-56
2021/08/07 17:38:36;;;;;;;3.87;1.90;;;;;;;19.71;64.17;98629.22;1855825;76;22208;-61
2021/08/07 17:41:30;;;;;;;4.62;1.85;;;;;;;19.63;64.73;98627.27;1870648;76;22231;-59
2021/08/07 17:44:25;;;;;;;4.05;1.95;;;;;;;19.54;65.18;98628.87;1851994;76;22230;-60
2021/08/07 17:47:00;;;;;;;4.15;1.87;;;;;;;19.47;65.48;98622.11;1889996;76;22523;-61
2021/08/07 17:49:35;;;;;;;5.08;2.33;;;;;;;19.41;66.13;98629.70;1889937;76;22235;-71
2021/08/07 17:52:37;;;;;;;4.55;2.52;;;;;;;19.35;66.45;98635.56;1863719;76;22190;-68
2021/08/07 17:55:13;;;;;;;5.12;2.12;;;;;;;19.29;66.77;98632.23;1855530;76;22218;-61
2021/08/07 17:57:48;;;;;;;5.40;2.52;;;;;;;19.25;67.14;98637.13;1870653;76;22136;-60
2021/08/07 18:00:43;;;;;;;3.77;2.20;;;;;;;19.22;67.36;98639.84;1850781;77;22131;-64
2021/08/07 18:03:18;;;;;;;6.70;2.62;;;;;;;19.21;67.76;98651.22;1874000;76;27925;-54
2021/08/07 18:05:52;;;;;;;4.50;2.40;;;;;;;19.29;67.75;98641.84;1870662;76;22132;-69
2021/08/07 18:08:49;;;;;;;6.78;2.90;;;;;;;19.26;67.78;98648.02;1889902;76;22575;-65
2021/08/07 18:11:43;;;;;;;10.20;2.55;;;;;;;19.22;68.04;98656.00;1870584;76;22148;-55
2021/08/07 18:14:24;;;;;;;7.95;2.80;;;;;;;19.19;68.19;98655.63;1889885;76;22171;-58
2021/08/07 18:17:05;;;;;;;6.78;2.40;;;;;;;19.15;68.55;98655.77;1861807;76;22205;-66
2021/08/07 18:19:41;;;;;;;8.03;3.00;;;;;;;19.09;68.94;98665.50;1837657;76;27998;-68
2021/08/07 18:22:23;;;;;;;5.33;2.80;;;;;;;19.07;69.05;98665.14;1862918;76;22631;-64
2021/08/07 18:25:18;;;;;;;4.85;2.62;;;;;;;19.03;69.39;98668.73;1852250;76;22171;-59
2021/08/07 18:28:12;;;;;;;7.10;3.05;;;;;;;18.97;69.61;98674.98;1855520;76;22175;-61
2021/08/07 18:30:55;;;;;;;6.22;3.15;;;;;;;18.88;70.04;98662.19;1852944;76;22181;-57
2021/08/07 18:33:51;;;;;;;5.12;2.90;;;;;;;18.81;70.18;98664.11;1865492;76;22162;-63
2021/08/07 18:36:26;;;;;;;5.78;2.90;;;;;;;18.76;70.39;98656.84;1852536;76;22163;-55
2021/08/07 18:39:23;;;;;;;5.30;2.77;;;;;;;18.75;70.45;98659.45;1855332;76;22254;-58
2021/08/07 18:42:17;;;;;;;5.20;2.30;;;;;;;18.75;70.65;98659.45;1850715;76;22133;-59
2021/08/07 18:44:59;;;;;;;5.28;2.72;;;;;;;18.74;70.67;98661.66;1865895;76;22183;-64
2021/08/07 18:47:55;;;;;;;4.83;2.67;;;;;;;18.73;70.80;98659.96;1862213;76;20119;-67
2021/08/07 18:50:49;;;;;;;5.90;2.40;;;;;;;18.69;70.88;98661.78;1863666;76;22122;-65
2021/08/07 18:53:31;;;;;;;4.80;2.15;;;;;;;18.63;70.90;98661.50;1851530;76;22200;-59
2021/08/07 18:56:09;;;;;;;3.35;1.75;;;;;;;18.61;70.99;98670.28;1855504;76;22161;-64
2021/08/07 18:58:46;;;;;;;6.05;2.45;;;;;;;18.55;71.27;98673.92;1850936;76;22566;-56
2021/08/07 19:01:41;;;;;;;5.00;2.37;;;;;;;18.55;71.42;98670.00;1840818;76;28026;-68
2021/08/07 19:04:22;;;;;;;5.20;2.60;;;;;;;18.61;71.63;98672.90;1851451;76;22191;-59
2021/08/07 19:06:58;;;;;;;5.92;2.70;;;;;;;18.63;71.58;98670.66;1843347;76;38193;-59
2021/08/07 19:09:33;;;;;;;3.25;2.08;;;;;;;18.69;71.59;98674.85;1856339;76;22108;-63
2021/08/07 19:12:28;;;;;;;5.12;2.30;;;;;;;18.68;71.62;98680.98;1861702;75;22226;-59
2021/08/07 19:15:06;;;;;;;4.33;2.40;;;;;;;18.69;71.51;98688.38;1859748;76;22678;-67
2021/08/07 19:18:07;;;;;;;5.05;2.40;;;;;;;18.63;71.59;98688.95;1849854;76;22215;-67
2021/08/07 19:20:43;;;;;;;6.80;2.58;;;;;;;18.56;71.82;98687.38;1847597;76;38242;-58
2021/08/07 19:23:37;;;;;;;5.20;2.45;;;;;;;18.57;71.97;98696.08;1870714;76;22109;-68
2021/08/07 19:26:32;;;;;;;5.17;2.42;;;;;;;18.53;72.14;98699.23;1870682;76;22105;-64
2021/08/07 19:29:08;;;;;;;5.70;2.90;;;;;;;18.51;72.27;98705.39;1870671;76;20098;-60
2021/08/07 19:31:43;;;;;;;3.98;2.25;;;;;;;18.49;72.40;98710.64;1864029;76;22178;-55
2021/08/07 19:34:19;;;;;;;6.40;2.95;;;;;;;18.49;72.46;98704.56;1837130;76;28459;-66